Time;durP1;ratioP1;P1;durP2;ratioP2;P2;SDS_P1;SDS_P2;PMS_P1;PMS_P2;Temp;Humidity;BMP_temperature;BMP_pressure;BME280_temperature;BME280_humidity;BME280_pressure;Samples;Min_cycle;Max_cycle;Signal;HPM_P1;HPM_P2
2023/11/07 00:00:50;;;;;;;1.80;1.10;;;;;;;11.07;54.21;99940.00;105824;1255;61385;-70
2023/11/07 00:03:16;;;;;;;1.90;0.90;;;;;;;11.08;54.06;99939.91;105905;1255;61733;-70
2023/11/07 00:05:44;;;;;;;2.70;1.10;;;;;;;11.08;54.03;99939.25;106153;1254;61263;-72
2023/11/07 00:08:10;;;;;;;2.50;1.10;;;;;;;11.08;54.11;99936.94;105804;1259;61234;-74
2023/11/07 00:10:37;;;;;;;7.20;0.90;;;;;;;11.08;54.15;99938.35;105848;1261;66005;-73
2023/11/07 00:13:04;;;;;;;2.70;1.00;;;;;;;11.07;54.05;99942.50;105946;1254;61132;-69
2023/11/07 00:15:32;;;;;;;2.60;1.00;;;;;;;11.06;54.06;99942.59;105980;1254;64067;-69
2023/11/07 00:17:59;;;;;;;1.40;0.90;;;;;;;11.05;54.16;99943.92;105740;1260;61237;-70
2023/11/07 00:20:25;;;;;;;3.00;1.30;;;;;;;11.05;54.22;99947.45;106394;1253;61288;-80
2023/11/07 00:22:52;;;;;;;2.00;1.00;;;;;;;11.05;54.16;99950.09;105929;1254;65013;-71
2023/11/07 00:25:19;;;;;;;2.30;1.20;;;;;;;11.04;54.20;99951.56;105686;1254;61285;-70
2023/11/07 00:27:46;;;;;;;2.20;1.10;;;;;;;11.03;54.23;99950.42;105751;1260;63856;-70
2023/11/07 00:30:13;;;;;;;1.90;1.10;;;;;;;11.02;54.24;99952.80;105713;1254;61416;-68
2023/11/07 00:32:39;;;;;;;2.80;1.40;;;;;;;11.01;54.25;99954.32;105533;1261;61322;-72
2023/11/07 00:35:07;;;;;;;3.10;1.30;;;;;;;11.01;54.37;99955.57;105933;1254;65826;-70
2023/11/07 00:37:34;;;;;;;4.00;1.60;;;;;;;10.99;54.39;99958.52;105919;1258;61128;-70
2023/11/07 00:40:00;;;;;;;3.90;1.50;;;;;;;10.98;54.40;99959.89;105573;1255;206985;-71
2023/11/07 00:42:27;;;;;;;3.00;1.60;;;;;;;10.96;54.54;99962.81;106113;1253;61240;-70
2023/11/07 00:44:54;;;;;;;3.00;1.70;;;;;;;10.95;54.53;99967.84;105648;1254;61413;-71
2023/11/07 00:47:21;;;;;;;2.70;1.70;;;;;;;10.94;54.54;99965.48;105890;1259;66003;-69
2023/11/07 00:49:47;;;;;;;3.10;1.60;;;;;;;10.94;54.72;99967.26;105745;1254;61442;-69
2023/11/07 00:52:14;;;;;;;3.10;1.70;;;;;;;10.94;54.79;99972.90;105923;1254;62973;-72
2023/11/07 00:54:41;;;;;;;3.00;1.60;;;;;;;10.95;54.80;99974.91;106408;1256;61464;-70
2023/11/07 00:57:09;;;;;;;3.90;1.70;;;;;;;10.97;54.78;99978.83;106145;1254;61253;-70
2023/11/07 00:59:36;;;;;;;3.00;1.80;;;;;;;10.97;54.83;99978.41;105827;1254;65988;-69
2023/11/07 01:02:03;;;;;;;3.60;1.50;;;;;;;10.97;54.87;99978.80;105453;1255;61400;-70
2023/11/07 01:04:30;;;;;;;4.00;1.70;;;;;;;10.97;54.89;99978.05;105834;1254;63943;-69
2023/11/07 01:06:57;;;;;;;3.80;1.90;;;;;;;10.97;55.03;99981.27;106011;1259;61347;-70
2023/11/07 01:09:23;;;;;;;3.00;1.50;;;;;;;10.95;55.24;99977.27;105783;1254;61248;-70
2023/11/07 01:11:50;;;;;;;3.90;1.80;;;;;;;10.88;55.49;99980.24;105757;1260;65982;-74
2023/11/07 01:14:17;;;;;;;4.80;1.80;;;;;;;10.80;55.71;99981.69;105902;1257;60231;-69
2023/11/07 01:16:44;;;;;;;5.80;1.90;;;;;;;10.73;55.94;99985.85;105719;1257;64071;-70
2023/11/07 01:19:11;;;;;;;5.00;2.30;;;;;;;10.68;56.07;99986.77;105607;1257;61241;-69
2023/11/07 01:21:39;;;;;;;4.90;2.00;;;;;;;10.65;56.28;99985.98;105686;1254;61351;-70
2023/11/07 01:24:07;;;;;;;3.60;1.70;;;;;;;10.60;56.54;99980.77;106222;1254;66577;-72
2023/11/07 01:26:34;;;;;;;3.60;1.60;;;;;;;10.52;56.73;99977.36;105760;1260;61735;-71
2023/11/07 01:29:00;;;;;;;3.90;1.40;;;;;;;10.46;56.95;99980.38;105726;1254;62627;-69
2023/11/07 01:31:27;;;;;;;4.90;1.80;;;;;;;10.35;57.09;99992.05;105833;1254;61104;-69
2023/11/07 01:33:54;;;;;;;2.60;1.50;;;;;;;10.24;57.41;99995.58;106111;1254;61308;-71
2023/11/07 01:36:21;;;;;;;2.70;1.60;;;;;;;10.16;57.65;99999.59;105918;1254;65869;-70
2023/11/07 01:38:47;;;;;;;4.40;1.80;;;;;;;10.10;57.84;100008.90;106083;1254;61266;-70
2023/11/07 01:41:14;;;;;;;2.90;1.80;;;;;;;10.05;58.08;100011.80;106064;1254;63931;-69
2023/11/07 01:43:41;;;;;;;4.50;1.90;;;;;;;9.99;58.27;100010.90;106393;1253;61273;-70
2023/11/07 01:46:07;;;;;;;3.00;1.90;;;;;;;9.93;58.50;100012.08;105816;1255;61169;-70
2023/11/07 01:48:34;;;;;;;5.50;2.00;;;;;;;9.89;58.74;100014.90;105895;1254;64560;-69
2023/11/07 01:51:03;;;;;;;6.20;2.10;;;;;;;9.86;58.83;100016.74;105680;1254;61276;-69
2023/11/07 01:53:30;;;;;;;4.20;2.10;;;;;;;9.82;58.99;100013.54;105890;1257;63811;-69
2023/11/07 01:55:57;;;;;;;8.10;2.20;;;;;;;9.77;59.12;100017.66;106107;1258;61329;-70
2023/11/07 01:58:24;;;;;;;5.90;2.20;;;;;;;9.71;59.32;100029.02;105858;1257;61150;-70
2023/11/07 02:00:53;;;;;;;5.20;2.00;;;;;;;9.65;59.34;100038.79;105937;1260;64512;-71
2023/11/07 02:03:21;;;;;;;6.30;2.20;;;;;;;9.61;59.54;100038.61;105969;1254;61320;-69
2023/11/07 02:05:48;;;;;;;4.40;1.90;;;;;;;9.58;59.65;100041.52;106102;1254;62501;-69
2023/11/07 02:08:14;;;;;;;3.80;1.90;;;;;;;9.55;59.71;100042.28;105800;1258;61352;-69
2023/11/07 02:10:41;;;;;;;4.90;2.10;;;;;;;9.52;59.69;100043.04;105877;1254;61347;-71
2023/11/07 02:13:08;;;;;;;3.00;1.60;;;;;;;9.48;59.72;100044.41;105833;1260;66200;-69
2023/11/07 02:15:37;;;;;;;2.90;1.40;;;;;;;9.42;59.75;100041.73;105797;1257;61346;-74
2023/11/07 02:18:04;;;;;;;3.40;1.40;;;;;;;9.35;59.92;100043.85;105823;1254;63814;-69
2023/11/07 02:20:32;;;;;;;5.20;1.60;;;;;;;9.29;60.00;100046.82;105817;1254;61361;-70
2023/11/07 02:23:29;;;;;;;3.10;1.60;;;;;;;9.24;60.09;100050.92;106039;1254;61257;-71
2023/11/07 02:25:56;;;;;;;4.40;1.50;;;;;;;9.19;60.18;100051.81;105890;1254;66062;-69
2023/11/07 02:28:24;;;;;;;2.90;1.60;;;;;;;9.14;60.36;100054.48;105669;1263;61320;-76
2023/11/07 02:30:50;;;;;;;6.90;1.90;;;;;;;9.09;60.47;100052.41;106050;1254;63989;-69
2023/11/07 02:33:19;;;;;;;2.50;1.50;;;;;;;9.04;60.61;100054.22;105934;1254;61148;-69
2023/11/07 02:35:46;;;;;;;3.60;1.70;;;;;;;9.01;60.77;100053.09;106236;1259;61135;-72
2023/11/07 02:38:13;;;;;;;2.90;1.60;;;;;;;8.98;60.83;100059.27;105946;1254;66015;-71
2023/11/07 02:40:39;;;;;;;3.30;1.50;;;;;;;8.96;60.90;100062.95;105845;1259;61310;-69
2023/11/07 02:43:06;;;;;;;5.10;1.90;;;;;;;8.93;60.98;100064.57;105865;1257;63836;-69
2023/11/07 02:45:36;;;;;;;3.40;1.60;;;;;;;8.90;61.13;100068.45;106245;1254;61322;-69
2023/11/07 02:48:04;;;;;;;4.10;1.70;;;;;;;8.88;61.17;100069.67;106063;1257;61812;-70
2023/11/07 02:50:31;;;;;;;4.10;1.80;;;;;;;8.86;61.23;100076.71;105787;1257;65801;-70
2023/11/07 02:52:58;;;;;;;3.80;2.00;;;;;;;8.83;61.42;100082.52;105912;1259;61298;-71
2023/11/07 02:55:25;;;;;;;4.80;1.90;;;;;;;8.82;61.42;100080.00;105791;1254;65154;-70
2023/11/07 02:57:51;;;;;;;4.30;2.00;;;;;;;8.81;61.53;100078.35;105790;1254;61123;-70
2023/11/07 03:00:19;;;;;;;3.80;2.00;;;;;;;8.80;61.55;100084.01;105767;1254;61279;-70
2023/11/07 03:02:46;;;;;;;5.20;2.20;;;;;;;8.78;61.62;100100.86;105748;1260;64907;-70
2023/11/07 03:05:13;;;;;;;4.50;2.50;;;;;;;8.73;61.60;100103.88;105876;1258;61222;-68
2023/11/07 03:07:39;;;;;;;6.30;2.20;;;;;;;8.67;61.72;100107.80;106092;1254;64028;-68
2023/11/07 03:10:07;;;;;;;4.60;2.20;;;;;;;8.65;61.92;100108.19;105803;1254;61229;-70
2023/11/07 03:12:34;;;;;;;4.20;2.00;;;;;;;8.67;62.25;100108.74;105939;1259;61368;-70
2023/11/07 03:15:02;;;;;;;3.90;1.70;;;;;;;8.75;62.44;100112.31;105817;1254;65988;-71
2023/11/07 03:17:29;;;;;;;3.50;1.80;;;;;;;8.87;62.52;100112.56;106057;1254;62836;-71
2023/11/07 03:19:56;;;;;;;2.80;1.60;;;;;;;9.03;62.47;100114.34;105770;1254;64070;-71
2023/11/07 03:22:26;;;;;;;3.90;1.80;;;;;;;9.20;62.37;100115.89;105696;1257;61144;-71
2023/11/07 03:24:53;;;;;;;3.70;1.70;;;;;;;9.32;62.18;100116.98;106102;1257;61423;-72
2023/11/07 03:27:20;;;;;;;3.10;1.90;;;;;;;9.44;61.91;100114.30;106086;1255;66068;-70
2023/11/07 03:29:47;;;;;;;4.10;1.60;;;;;;;9.52;61.72;100115.22;106217;1254;61254;-70
2023/11/07 03:32:13;;;;;;;3.70;1.90;;;;;;;9.57;61.46;100119.79;105792;1254;63795;-70
2023/11/07 03:34:40;;;;;;;3.70;1.80;;;;;;;9.60;61.32;100120.79;105769;1254;61272;-69
2023/11/07 03:37:06;;;;;;;6.50;1.90;;;;;;;9.57;61.18;100124.33;105418;1254;61755;-69
2023/11/07 03:39:33;;;;;;;5.60;2.00;;;;;;;9.48;61.04;100129.48;105244;1257;64608;-70
2023/11/07 03:42:00;;;;;;;3.90;2.00;;;;;;;9.33;60.96;100132.25;105825;1254;61298;-70
2023/11/07 03:44:27;;;;;;;6.10;2.40;;;;;;;9.21;61.10;100134.05;105696;1257;63878;-69
2023/11/07 03:46:54;;;;;;;3.30;1.90;;;;;;;9.10;61.29;100137.23;105714;1254;61228;-71
2023/11/07 03:49:20;;;;;;;4.10;2.10;;;;;;;8.98;61.40;100138.80;105839;1254;62801;-70
2023/11/07 03:51:47;;;;;;;3.30;1.80;;;;;;;8.89;61.60;100140.34;106099;1255;66095;-70
2023/11/07 03:54:14;;;;;;;4.10;2.30;;;;;;;8.80;61.74;100147.89;105838;1258;61260;-74
2023/11/07 03:56:41;;;;;;;5.00;2.20;;;;;;;8.72;61.92;100145.39;105896;1254;62642;-70
2023/11/07 03:59:07;;;;;;;4.80;2.30;;;;;;;8.67;62.11;100146.48;105886;1254;61568;-70
2023/11/07 04:01:37;;;;;;;3.70;2.20;;;;;;;8.63;62.29;100148.38;105857;1254;61283;-72
2023/11/07 04:04:03;;;;;;;4.20;2.80;;;;;;;8.58;62.43;100146.72;106141;1257;65864;-70
2023/11/07 04:06:31;;;;;;;5.70;2.40;;;;;;;8.56;62.53;100150.25;105904;1255;61269;-71
2023/11/07 04:08:58;;;;;;;4.70;2.60;;;;;;;8.53;62.68;100154.30;105785;1258;63788;-78
2023/11/07 04:11:25;;;;;;;5.30;2.40;;;;;;;8.50;62.75;100161.89;105876;1254;61288;-69
2023/11/07 04:13:51;;;;;;;5.60;2.80;;;;;;;8.46;62.84;100166.04;105801;1257;61346;-70
2023/11/07 04:16:18;;;;;;;4.70;2.40;;;;;;;8.44;62.94;100166.44;105958;1258;65890;-73
2023/11/07 04:18:45;;;;;;;4.60;2.50;;;;;;;8.40;62.98;100169.48;106290;1254;61257;-72
2023/11/07 04:21:12;;;;;;;5.20;2.30;;;;;;;8.37;63.09;100171.66;105775;1256;63922;-70
2023/11/07 04:23:40;;;;;;;4.40;2.20;;;;;;;8.34;63.21;100177.26;106037;1254;61218;-71
2023/11/07 04:26:07;;;;;;;4.20;2.00;;;;;;;8.33;63.36;100179.28;106210;1254;61212;-69
2023/11/07 04:28:37;;;;;;;6.60;2.30;;;;;;;8.31;63.44;100182.73;105879;1256;65933;-69
2023/11/07 04:31:04;;;;;;;7.10;2.70;;;;;;;8.29;63.56;100186.61;106040;1254;61146;-69
2023/11/07 04:33:33;;;;;;;5.10;2.50;;;;;;;8.27;63.64;100193.59;105811;1254;72775;-69
2023/11/07 04:36:00;;;;;;;4.10;2.40;;;;;;;8.26;63.75;100198.75;105834;1254;61372;-70
2023/11/07 04:38:30;;;;;;;5.90;2.60;;;;;;;8.27;63.95;100203.95;105790;1254;61349;-71
2023/11/07 04:40:57;;;;;;;5.70;2.70;;;;;;;8.28;64.05;100204.71;105968;1256;66605;-71
2023/11/07 04:43:25;;;;;;;5.20;2.70;;;;;;;8.32;64.12;100202.20;106056;1254;61358;-70
2023/11/07 04:45:51;;;;;;;6.10;2.80;;;;;;;8.37;64.19;100204.44;106182;1257;64041;-70
2023/11/07 04:48:19;;;;;;;4.30;2.50;;;;;;;8.44;64.30;100206.56;106196;1254;61353;-71
2023/11/07 04:50:46;;;;;;;4.40;2.40;;;;;;;8.54;64.45;100208.98;105830;1254;61305;-70
2023/11/07 04:53:13;;;;;;;5.60;2.20;;;;;;;8.68;64.49;100213.11;105865;1255;65995;-69
2023/11/07 04:55:39;;;;;;;5.90;2.40;;;;;;;8.80;64.33;100216.18;105971;1254;61271;-69
2023/11/07 04:58:06;;;;;;;4.50;2.40;;;;;;;8.91;64.16;100217.17;106043;1254;63932;-70
2023/11/07 05:00:33;;;;;;;5.20;2.30;;;;;;;9.00;63.97;100220.19;105982;1254;61264;-68
2023/11/07 05:03:00;;;;;;;5.10;3.00;;;;;;;9.08;63.89;100226.34;106124;1254;61144;-69
2023/11/07 05:05:27;;;;;;;25.30;11.10;;;;;;;9.16;63.64;100230.52;105938;1254;64472;-77
2023/11/07 05:07:54;;;;;;;44.40;15.80;;;;;;;9.23;63.48;100234.54;106569;1256;61192;-72
2023/11/07 05:10:20;;;;;;;57.80;19.40;;;;;;;9.29;63.31;100234.44;106215;1256;62884;-70
2023/11/07 05:12:47;;;;;;;85.90;27.00;;;;;;;9.35;63.11;100238.43;106318;1254;61266;-70
2023/11/07 05:15:14;;;;;;;87.90;27.40;;;;;;;9.40;63.00;100239.06;105803;1256;61282;-70
2023/11/07 05:17:41;;;;;;;85.80;27.50;;;;;;;9.44;62.83;100242.58;106241;1256;65834;-71
2023/11/07 05:20:10;;;;;;;41.30;14.40;;;;;;;9.48;62.78;100251.66;106020;1254;61356;-70
2023/11/07 05:22:36;;;;;;;21.60;9.80;;;;;;;9.51;62.60;100254.55;105949;1259;62654;-70
2023/11/07 05:25:06;;;;;;;14.20;6.70;;;;;;;9.55;62.43;100256.16;106200;1256;61108;-73
2023/11/07 05:27:33;;;;;;;8.60;4.90;;;;;;;9.58;62.26;100253.33;105664;1259;61237;-68
2023/11/07 05:30:00;;;;;;;9.50;5.90;;;;;;;9.60;62.21;100254.88;105743;1254;65871;-68
2023/11/07 05:32:27;;;;;;;5.70;3.60;;;;;;;9.61;62.17;100265.35;105830;1259;61193;-69
2023/11/07 05:34:56;;;;;;;12.00;3.00;;;;;;;9.62;62.09;100267.22;106129;1255;64053;-70
2023/11/07 05:37:22;;;;;;;5.00;2.20;;;;;;;9.62;62.08;100273.40;105703;1256;61243;-69
2023/11/07 05:39:50;;;;;;;7.80;2.50;;;;;;;9.60;62.08;100279.36;105642;1256;61337;-69
2023/11/07 05:42:18;;;;;;;6.10;2.50;;;;;;;9.58;62.12;100284.22;105507;1262;66919;-68
2023/11/07 05:44:44;;;;;;;5.50;2.50;;;;;;;9.56;62.11;100284.41;105836;1260;61353;-68
2023/11/07 05:47:11;;;;;;;3.90;2.10;;;;;;;9.55;62.18;100286.45;105564;1257;65783;-68
2023/11/07 05:49:38;;;;;;;7.70;2.30;;;;;;;9.53;62.24;100288.18;105550;1254;61345;-70
2023/11/07 05:52:05;;;;;;;7.10;2.10;;;;;;;9.52;62.34;100294.92;106068;1254;61257;-68
2023/11/07 05:54:32;;;;;;;5.20;2.20;;;;;;;9.53;62.51;100302.03;105760;1254;66187;-68
2023/11/07 05:56:59;;;;;;;5.60;2.20;;;;;;;9.56;62.62;100301.80;105599;1254;61337;-68
2023/11/07 05:59:26;;;;;;;4.40;1.90;;;;;;;9.62;62.66;100302.05;105548;1254;63912;-68
2023/11/07 06:01:53;;;;;;;5.00;2.00;;;;;;;9.71;62.66;100307.34;105371;1254;61126;-68
2023/11/07 06:04:33;;;;;;;4.50;2.00;;;;;;;9.83;62.58;100311.13;105747;1254;61296;-68
2023/11/07 06:07:00;;;;;;;3.30;1.50;;;;;;;9.98;62.30;100309.82;105255;1262;66138;-68
2023/11/07 06:09:28;;;;;;;4.20;1.80;;;;;;;10.14;61.93;100310.13;105575;1254;61449;-71
2023/11/07 06:11:57;;;;;;;5.10;1.60;;;;;;;10.29;61.38;100315.63;105970;1257;64055;-68
2023/11/07 06:14:24;;;;;;;2.40;1.60;;;;;;;10.44;61.04;100315.05;105487;1255;61247;-68
2023/11/07 06:16:54;;;;;;;3.60;1.50;;;;;;;10.55;60.84;100316.77;105785;1254;61241;-69
2023/11/07 06:19:21;;;;;;;6.20;2.10;;;;;;;10.64;60.57;100315.52;105623;1257;64546;-68
2023/11/07 06:21:49;;;;;;;3.30;1.40;;;;;;;10.72;60.31;100324.39;105669;1254;61913;-71
2023/11/07 06:24:17;;;;;;;6.40;2.50;;;;;;;10.78;59.98;100326.15;105197;1261;63082;-71
2023/11/07 06:26:45;;;;;;;3.30;1.80;;;;;;;10.85;59.94;100328.45;105338;1261;61313;-68
2023/11/07 06:29:13;;;;;;;3.60;1.40;;;;;;;10.91;59.65;100327.77;105733;1254;61342;-69
2023/11/07 06:31:45;;;;;;;4.50;1.80;;;;;;;10.97;59.54;100330.13;105617;1258;65983;-69
2023/11/07 06:34:14;;;;;;;4.80;1.70;;;;;;;11.02;59.38;100340.09;105763;1254;61365;-68
2023/11/07 06:36:41;;;;;;;3.70;1.70;;;;;;;11.07;59.12;100334.70;105467;1262;62593;-70
2023/11/07 06:39:10;;;;;;;3.90;1.80;;;;;;;11.11;59.06;100334.20;105545;1257;61773;-68
2023/11/07 06:41:38;;;;;;;6.40;2.10;;;;;;;11.17;59.08;100335.98;105831;1254;61388;-68
2023/11/07 06:44:06;;;;;;;5.40;1.60;;;;;;;11.24;59.04;100333.65;105821;1259;65997;-68
2023/11/07 06:46:33;;;;;;;6.70;2.00;;;;;;;11.31;58.84;100329.03;105327;1256;61337;-68
2023/11/07 06:49:01;;;;;;;3.90;1.70;;;;;;;11.38;58.68;100325.97;105706;1254;63738;-67
2023/11/07 06:51:29;;;;;;;4.20;1.80;;;;;;;11.45;58.48;100332.45;105398;1254;61402;-68
2023/11/07 06:53:58;;;;;;;3.70;1.80;;;;;;;11.51;58.37;100337.39;105339;1257;61318;-71
2023/11/07 06:56:26;;;;;;;5.00;1.80;;;;;;;11.56;58.03;100338.38;105664;1256;65950;-69
2023/11/07 06:58:53;;;;;;;3.70;1.80;;;;;;;11.61;58.10;100339.33;105105;1259;61415;-68
2023/11/07 07:01:20;;;;;;;6.10;1.80;;;;;;;11.68;57.86;100339.10;107828;1258;63835;-67
2023/11/07 07:03:47;;;;;;;3.80;1.50;;;;;;;11.75;57.66;100337.14;106412;1254;61334;-67
2023/11/07 07:06:14;;;;;;;5.20;1.60;;;;;;;11.82;57.55;100340.12;105557;1257;61279;-67
2023/11/07 07:08:42;;;;;;;4.00;1.70;;;;;;;11.89;57.37;100341.27;105481;1262;66021;-67
2023/11/07 07:11:09;;;;;;;3.30;1.60;;;;;;;11.96;57.28;100344.70;105686;1255;61278;-67
2023/11/07 07:13:36;;;;;;;3.00;1.50;;;;;;;12.01;56.91;100344.64;105592;1258;63799;-67
2023/11/07 07:16:05;;;;;;;3.50;1.70;;;;;;;12.03;56.68;100340.88;105570;1254;61327;-66
2023/11/07 07:18:32;;;;;;;4.50;1.90;;;;;;;12.06;56.52;100344.40;105534;1254;61316;-67
2023/11/07 07:21:00;;;;;;;2.30;1.40;;;;;;;12.12;56.59;100349.00;105593;1259;66047;-68
2023/11/07 07:23:32;;;;;;;4.30;1.50;;;;;;;12.18;56.47;100354.83;105603;1257;61396;-68
2023/11/07 07:26:01;;;;;;;3.80;1.80;;;;;;;12.26;56.40;100356.96;105619;1254;63729;-69
2023/11/07 07:28:28;;;;;;;5.30;2.00;;;;;;;12.33;56.28;100359.66;105591;1254;61320;-67
2023/11/07 07:30:55;;;;;;;2.60;1.60;;;;;;;12.39;56.06;100365.32;105917;1254;61273;-65
2023/11/07 07:33:24;;;;;;;5.00;1.80;;;;;;;12.45;55.93;100368.14;105660;1257;65838;-68
2023/11/07 07:35:51;;;;;;;3.20;1.40;;;;;;;12.50;55.68;100367.17;105329;1255;61396;-66
2023/11/07 07:38:18;;;;;;;3.40;1.80;;;;;;;12.54;55.51;100368.26;105479;1259;62893;-67
2023/11/07 07:40:45;;;;;;;5.10;1.90;;;;;;;12.58;55.63;100373.23;105415;1256;61352;-69
2023/11/07 07:43:13;;;;;;;3.20;1.80;;;;;;;12.64;55.43;100379.98;106601;1254;61175;-68
2023/11/07 07:45:43;;;;;;;3.30;1.70;;;;;;;12.69;55.21;100383.94;105870;1261;64789;-67
2023/11/07 07:48:10;;;;;;;3.60;1.90;;;;;;;12.75;55.20;100386.19;105436;1259;61356;-67
2023/11/07 07:50:42;;;;;;;4.10;2.00;;;;;;;12.84;55.17;100388.08;106047;1254;62578;-67
2023/11/07 07:53:10;;;;;;;4.60;2.30;;;;;;;12.93;55.03;100392.90;105677;1258;61317;-65
2023/11/07 07:55:43;;;;;;;3.80;2.00;;;;;;;13.03;54.86;100403.20;105676;1256;61298;-68
2023/11/07 07:58:11;;;;;;;2.70;2.10;;;;;;;13.08;54.54;100405.28;106045;1254;65844;-65
2023/11/07 08:00:38;;;;;;;4.50;2.80;;;;;;;13.11;54.22;100404.33;105403;1254;61308;-66
2023/11/07 08:03:06;;;;;;;9.80;7.50;;;;;;;13.18;54.23;100406.10;105604;1254;64083;-67
2023/11/07 08:05:38;;;;;;;8.00;6.30;;;;;;;13.26;54.31;100407.52;105644;1254;61285;-65
2023/11/07 08:08:06;;;;;;;3.50;2.00;;;;;;;13.36;54.10;100415.07;105457;1256;61359;-69
2023/11/07 08:10:33;;;;;;;5.00;1.50;;;;;;;13.44;53.88;100415.19;105219;1254;67738;-70
2023/11/07 08:13:02;;;;;;;3.70;2.10;;;;;;;13.52;53.84;100418.41;105517;1254;61317;-65
2023/11/07 08:15:29;;;;;;;4.50;2.40;;;;;;;13.60;53.52;100415.02;105638;1257;65659;-65
2023/11/07 08:17:57;;;;;;;7.50;4.10;;;;;;;13.68;53.25;100414.26;106047;1254;61344;-68
2023/11/07 08:20:24;;;;;;;10.70;2.80;;;;;;;13.76;53.11;100418.82;105876;1257;61147;-67
2023/11/07 08:22:53;;;;;;;5.00;2.10;;;;;;;13.84;52.66;100421.45;106386;1259;67747;-67
2023/11/07 08:25:21;;;;;;;13.00;8.60;;;;;;;13.88;52.33;100420.34;106085;1256;61295;-67
2023/11/07 08:27:51;;;;;;;20.00;11.90;;;;;;;13.92;52.38;100424.44;105498;1258;66061;-69
2023/11/07 08:30:22;;;;;;;10.60;7.30;;;;;;;13.98;52.21;100427.53;105436;1263;61220;-68
2023/11/07 08:32:50;;;;;;;4.30;2.00;;;;;;;14.05;51.61;100425.84;105780;1254;61147;-67
2023/11/07 08:35:18;;;;;;;4.70;1.80;;;;;;;14.08;51.51;100421.16;106045;1254;67940;-65
2023/11/07 08:37:49;;;;;;;4.80;1.90;;;;;;;14.10;51.30;100421.73;105865;1255;61340;-67
2023/11/07 08:40:19;;;;;;;18.90;12.40;;;;;;;14.13;51.13;100420.85;105350;1257;65795;-68
2023/11/07 08:42:48;;;;;;;5.10;2.50;;;;;;;14.15;50.92;100422.64;105730;1254;61283;-67
2023/11/07 08:45:18;;;;;;;5.80;3.50;;;;;;;14.16;50.94;100420.78;105530;1257;61743;-68
2023/11/07 08:47:46;;;;;;;6.20;2.90;;;;;;;14.22;51.10;100422.84;105286;1254;67945;-67
2023/11/07 08:50:13;;;;;;;3.70;2.30;;;;;;;14.33;51.15;100423.78;106131;1255;61265;-68
2023/11/07 08:52:40;;;;;;;3.60;2.10;;;;;;;14.44;51.05;100425.76;106037;1259;63738;-66
2023/11/07 08:55:13;;;;;;;4.70;2.50;;;;;;;14.52;50.44;100429.97;108285;1254;61132;-65
2023/11/07 08:57:40;;;;;;;3.10;1.60;;;;;;;14.57;50.31;100431.79;109017;1254;59191;-67
2023/11/07 09:00:08;;;;;;;3.40;1.60;;;;;;;14.64;50.33;100431.27;109080;1254;65652;-64
2023/11/07 09:02:36;;;;;;;3.80;1.50;;;;;;;14.71;49.87;100437.19;108948;1254;69474;-65
2023/11/07 09:05:03;;;;;;;5.60;3.10;;;;;;;14.72;49.70;100432.98;109215;1254;65982;-65
2023/11/07 09:07:30;;;;;;;3.50;1.90;;;;;;;14.73;49.76;100434.72;109123;1254;59242;-64
2023/11/07 09:09:57;;;;;;;6.10;3.60;;;;;;;14.79;49.76;100433.05;109046;1254;59290;-65
2023/11/07 09:12:24;;;;;;;7.90;3.20;;;;;;;14.85;48.96;100433.13;109100;1253;67834;-66
2023/11/07 09:14:51;;;;;;;4.00;1.90;;;;;;;14.89;48.63;100438.65;107912;1260;61263;-66
2023/11/07 09:17:18;;;;;;;2.70;1.30;;;;;;;14.94;48.48;100439.42;105319;1256;65880;-66
2023/11/07 09:19:45;;;;;;;6.50;2.20;;;;;;;14.99;47.93;100440.73;105604;1256;61272;-68
2023/11/07 09:22:12;;;;;;;4.20;1.90;;;;;;;15.02;47.95;100440.86;105812;1259;61154;-68
2023/11/07 09:24:39;;;;;;;4.90;2.60;;;;;;;15.11;47.49;100440.16;105617;1254;67792;-66
2023/11/07 09:27:07;;;;;;;2.60;1.40;;;;;;;15.22;47.25;100445.88;105574;1254;61282;-65
2023/11/07 09:29:37;;;;;;;3.00;1.20;;;;;;;15.35;46.61;100448.45;105682;1254;65727;-65
2023/11/07 09:32:05;;;;;;;4.40;1.40;;;;;;;15.47;46.18;100445.92;105638;1254;61253;-65
2023/11/07 09:34:32;;;;;;;5.40;3.00;;;;;;;15.55;46.07;100441.98;105439;1261;61226;-66
2023/11/07 09:36:59;;;;;;;3.00;1.40;;;;;;;15.65;46.13;100450.65;105717;1257;67683;-65
2023/11/07 09:39:26;;;;;;;37.20;29.50;;;;;;;15.77;45.72;100449.99;105683;1254;61286;-67
2023/11/07 09:41:53;;;;;;;42.30;33.90;;;;;;;15.91;45.91;100444.38;105499;1255;65723;-66
2023/11/07 09:44:20;;;;;;;17.70;10.80;;;;;;;16.07;45.17;100443.88;105615;1254;61281;-65
2023/11/07 09:46:48;;;;;;;6.10;3.50;;;;;;;16.17;44.13;100446.38;105770;1255;61254;-65
2023/11/07 09:49:15;;;;;;;1.90;1.00;;;;;;;16.19;43.65;100444.71;105677;1259;67808;-68
2023/11/07 09:51:43;;;;;;;25.50;23.10;;;;;;;16.19;43.75;100442.36;105614;1254;61234;-66
2023/11/07 09:54:10;;;;;;;99.10;90.30;;;;;;;16.23;43.77;100443.10;106162;1257;65925;-66
2023/11/07 09:56:39;;;;;;;8.50;6.50;;;;;;;16.29;44.26;100441.92;105662;1254;61186;-66
2023/11/07 09:59:35;;;;;;;3.30;2.30;;;;;;;16.44;43.96;100434.21;106174;1254;61295;-65
2023/11/07 10:02:05;;;;;;;2.80;1.40;;;;;;;16.60;43.16;100432.89;105623;1257;67880;-65
2023/11/07 10:04:34;;;;;;;2.50;1.40;;;;;;;16.66;43.00;100430.40;105655;1259;61266;-65
2023/11/07 10:07:02;;;;;;;4.60;1.20;;;;;;;16.74;42.59;100429.49;105415;1254;65718;-66
2023/11/07 10:09:31;;;;;;;8.30;7.40;;;;;;;16.82;42.55;100431.77;105937;1259;61258;-67
2023/11/07 10:11:59;;;;;;;2.00;1.00;;;;;;;16.94;41.70;100433.04;106154;1256;61224;-64
2023/11/07 10:14:26;;;;;;;3.20;1.10;;;;;;;16.99;41.39;100430.57;105518;1262;67756;-66
2023/11/07 10:16:56;;;;;;;22.80;20.60;;;;;;;17.06;42.29;100434.23;106566;1257;61897;-65
2023/11/07 10:19:24;;;;;;;3.70;1.80;;;;;;;17.24;41.55;100428.44;105673;1254;65811;-65
2023/11/07 10:21:51;;;;;;;2.00;1.10;;;;;;;17.31;40.82;100427.55;105697;1255;61446;-66
2023/11/07 10:24:19;;;;;;;1.90;1.00;;;;;;;17.33;40.81;100421.91;105698;1254;61304;-66
2023/11/07 10:26:50;;;;;;;1.90;1.10;;;;;;;17.37;40.56;100423.83;105591;1255;67617;-66
2023/11/07 10:29:25;;;;;;;2.10;1.20;;;;;;;17.38;40.48;100425.14;105622;1260;61221;-64
2023/11/07 10:32:09;;;;;;;2.30;1.30;;;;;;;17.37;40.17;100426.83;105732;1259;73052;-65
2023/11/07 10:34:38;;;;;;;2.50;1.70;;;;;;;17.40;40.55;100424.73;105730;1254;61263;-66
2023/11/07 10:37:05;;;;;;;6.70;4.60;;;;;;;17.49;40.58;100426.44;105645;1254;61283;-65
2023/11/07 10:39:33;;;;;;;3.70;2.60;;;;;;;17.60;39.80;100425.48;105660;1257;67900;-66
2023/11/07 10:42:19;;;;;;;3.80;2.20;;;;;;;17.64;39.75;100423.77;105498;1257;61222;-65
2023/11/07 10:44:48;;;;;;;3.40;1.20;;;;;;;17.72;39.35;100413.29;105330;1260;64762;-65
2023/11/07 10:47:16;;;;;;;4.90;1.10;;;;;;;17.77;39.17;100414.34;105608;1254;61240;-65
2023/11/07 10:49:44;;;;;;;1.80;0.90;;;;;;;17.80;39.04;100413.90;105727;1254;61436;-64
2023/11/07 10:52:11;;;;;;;4.10;1.10;;;;;;;17.84;38.83;100408.02;105661;1260;74142;-65
2023/11/07 10:54:38;;;;;;;3.60;1.30;;;;;;;17.89;38.73;100411.92;105313;1261;61309;-66
2023/11/07 10:57:05;;;;;;;2.80;1.00;;;;;;;17.97;38.88;100414.80;105490;1259;65728;-65
2023/11/07 10:59:34;;;;;;;3.90;1.50;;;;;;;18.04;38.47;100414.22;105253;1256;61203;-66
2023/11/07 11:02:01;;;;;;;3.40;1.90;;;;;;;18.02;38.62;100404.72;105557;1255;61224;-67
2023/11/07 11:04:34;;;;;;;4.10;2.10;;;;;;;18.04;38.62;100398.50;105439;1260;67733;-66
2023/11/07 11:07:02;;;;;;;5.80;1.90;;;;;;;18.12;38.37;100399.80;105597;1257;61245;-66
2023/11/07 11:09:30;;;;;;;5.20;2.30;;;;;;;18.21;38.52;100399.73;105610;1257;64148;-67
2023/11/07 11:11:58;;;;;;;8.50;1.90;;;;;;;18.32;38.38;100400.29;105520;1255;61461;-66
2023/11/07 11:14:26;;;;;;;4.60;1.80;;;;;;;18.41;37.85;100400.43;105524;1254;60923;-67
2023/11/07 11:17:04;;;;;;;2.40;0.70;;;;;;;18.44;37.59;100408.36;105477;1258;67788;-66
2023/11/07 11:19:55;;;;;;;3.90;1.00;;;;;;;18.49;37.83;100407.97;105466;1257;61261;-65
2023/11/07 11:22:22;;;;;;;3.20;1.20;;;;;;;18.63;38.03;100408.73;105572;1257;63707;-66